Time;durP1;ratioP1;P1;durP2;ratioP2;P2;SDS_P1;SDS_P2;PMS_P1;PMS_P2;Temp;Humidity;BMP_temperature;BMP_pressure;BME280_temperature;BME280_humidity;BME280_pressure;Samples;Min_cycle;Max_cycle;Signal;HPM_P1;HPM_P2
2021/10/11 00:01:59;;;;;;;1999.90;999.90;;;12.00;99.90;;;;;;4956153;29;20561;-65
2021/10/11 00:04:25;;;;;;;1999.90;999.90;;;11.90;99.90;;;;;;4955510;28;20222;-66
2021/10/11 00:06:51;;;;;;;1999.90;999.90;;;11.90;99.90;;;;;;4956066;28;20183;-65
2021/10/11 00:09:16;;;;;;;1999.90;999.90;;;11.90;99.90;;;;;;4955852;29;20414;-66
2021/10/11 00:11:42;;;;;;;1999.90;999.90;;;11.80;99.90;;;;;;4956050;29;20684;-66
2021/10/11 00:14:07;;;;;;;1999.90;999.90;;;11.80;99.90;;;;;;4956019;29;20716;-66
2021/10/11 00:16:34;;;;;;;1999.90;999.90;;;11.70;99.90;;;;;;4955993;29;20254;-66
2021/10/11 00:19:01;;;;;;;1999.90;999.90;;;11.60;99.90;;;;;;4955673;28;20183;-66
2021/10/11 00:21:27;;;;;;;1999.90;999.90;;;11.60;99.90;;;;;;4955727;28;20561;-66
2021/10/11 00:23:52;;;;;;;1999.90;999.90;;;11.60;99.90;;;;;;4955810;29;20535;-66
2021/10/11 00:26:18;;;;;;;1999.90;999.90;;;11.60;99.90;;;;;;4955920;28;20170;-65
2021/10/11 00:28:43;;;;;;;1999.90;999.90;;;11.50;99.90;;;;;;4955831;29;20577;-65
2021/10/11 00:31:10;;;;;;;1999.90;999.90;;;11.50;99.90;;;;;;4955446;29;20893;-66
2021/10/11 00:33:36;;;;;;;1999.90;999.90;;;11.50;99.90;;;;;;4955724;28;20539;-66
2021/10/11 00:36:02;;;;;;;1999.90;999.90;;;11.60;99.90;;;;;;4955579;28;20437;-66
2021/10/11 00:38:28;;;;;;;1999.90;999.90;;;11.50;99.90;;;;;;4955604;28;20419;-66
2021/10/11 00:40:54;;;;;;;1999.90;999.90;;;11.60;99.90;;;;;;4955119;29;20980;-67
2021/10/11 00:43:20;;;;;;;1999.90;999.90;;;11.60;99.90;;;;;;4955452;28;20179;-65
2021/10/11 00:45:45;;;;;;;1999.90;999.90;;;11.60;99.90;;;;;;4955467;29;20414;-65
2021/10/11 00:48:11;;;;;;;1999.90;999.90;;;11.70;99.90;;;;;;4955375;29;20258;-66
2021/10/11 00:50:38;;;;;;;1999.90;999.90;;;11.70;99.90;;;;;;4955087;28;20674;-66
2021/10/11 00:53:03;;;;;;;1999.90;999.90;;;11.70;99.90;;;;;;4955326;28;20470;-66
2021/10/11 00:55:29;;;;;;;1999.90;999.90;;;11.70;99.90;;;;;;4955314;28;20180;-66
2021/10/11 00:57:55;;;;;;;1999.90;999.90;;;11.70;99.90;;;;;;4955233;29;20183;-66
2021/10/11 01:00:20;;;;;;;1999.90;999.90;;;11.80;99.90;;;;;;4954921;29;20246;-66
2021/10/11 01:02:46;;;;;;;1999.90;999.90;;;11.90;99.90;;;;;;4954922;29;20211;-66
2021/10/11 01:05:11;;;;;;;1999.90;999.90;;;11.90;99.90;;;;;;4955074;29;20229;-66
2021/10/11 01:07:37;;;;;;;1999.90;999.90;;;12.00;99.90;;;;;;4955044;29;20253;-66
2021/10/11 01:10:04;;;;;;;1999.90;999.90;;;12.00;99.90;;;;;;4954825;29;20203;-66
2021/10/11 01:12:29;;;;;;;1999.90;999.90;;;12.10;99.90;;;;;;4954939;28;20461;-66
2021/10/11 01:14:55;;;;;;;1999.90;999.90;;;12.10;99.90;;;;;;4954930;29;20928;-65
2021/10/11 01:17:21;;;;;;;1999.90;999.90;;;12.10;99.90;;;;;;4953934;28;20188;-66
2021/10/11 01:19:50;;;;;;;1999.90;999.90;;;12.10;99.90;;;;;;4954557;29;20175;-66
2021/10/11 01:22:19;;;;;;;1999.90;999.90;;;12.20;99.90;;;;;;4954658;28;20210;-66
2021/10/11 01:24:46;;;;;;;1999.90;999.90;;;12.20;99.90;;;;;;4954804;29;20402;-66
2021/10/11 01:27:12;;;;;;;1999.90;999.90;;;12.20;99.90;;;;;;4954832;28;20925;-65
2021/10/11 01:29:37;;;;;;;1999.90;999.90;;;12.20;99.90;;;;;;4954443;29;20423;-66
2021/10/11 01:32:03;;;;;;;1999.90;999.90;;;12.20;99.90;;;;;;4954542;28;20195;-66
2021/10/11 01:34:29;;;;;;;1999.90;999.90;;;12.30;99.90;;;;;;4954566;28;20253;-66
2021/10/11 01:36:55;;;;;;;1999.90;999.90;;;12.30;99.90;;;;;;4954538;29;20450;-66
2021/10/11 01:39:20;;;;;;;1999.90;999.90;;;12.30;99.90;;;;;;4954250;29;20183;-66
2021/10/11 01:41:46;;;;;;;1999.90;999.90;;;12.30;99.90;;;;;;4954394;29;20273;-66
2021/10/11 01:44:12;;;;;;;1999.90;999.90;;;12.40;99.90;;;;;;4954403;28;20220;-66
2021/10/11 01:46:37;;;;;;;1999.90;999.90;;;12.40;99.90;;;;;;4954327;29;20178;-65
2021/10/11 01:49:04;;;;;;;1999.90;999.90;;;12.50;99.90;;;;;;4954040;28;20234;-66
2021/10/11 01:51:30;;;;;;;1999.90;999.90;;;12.40;99.90;;;;;;4954154;28;20210;-66
2021/10/11 01:53:56;;;;;;;1999.90;999.90;;;12.40;99.90;;;;;;4954300;28;20552;-65
2021/10/11 01:56:22;;;;;;;1999.90;999.90;;;12.30;99.90;;;;;;4954225;29;20415;-66
2021/10/11 01:58:47;;;;;;;1999.90;999.90;;;12.30;99.90;;;;;;4954255;28;20174;-66
2021/10/11 02:01:13;;;;;;;1999.90;999.90;;;12.20;99.90;;;;;;4953725;28;20206;-66
2021/10/11 02:03:39;;;;;;;1999.90;999.90;;;12.20;99.90;;;;;;4954105;28;20314;-66
2021/10/11 02:06:04;;;;;;;1999.90;999.90;;;12.10;99.90;;;;;;4954124;29;20174;-65
2021/10/11 02:08:30;;;;;;;1999.90;999.90;;;12.10;99.90;;;;;;4954130;28;20178;-65
2021/10/11 02:10:55;;;;;;;1999.90;999.90;;;12.00;99.90;;;;;;4953832;29;20221;-65
2021/10/11 02:13:21;;;;;;;1999.90;999.90;;;11.90;99.90;;;;;;4954052;29;20222;-66
2021/10/11 02:15:47;;;;;;;1999.90;999.90;;;12.00;99.90;;;;;;4953977;28;20233;-65
2021/10/11 02:18:12;;;;;;;1999.90;999.90;;;12.00;99.90;;;;;;4953893;29;20174;-66
2021/10/11 02:20:38;;;;;;;1999.90;999.90;;;12.00;99.90;;;;;;4953589;29;20175;-65
2021/10/11 02:23:04;;;;;;;1999.90;999.90;;;12.10;99.90;;;;;;4954040;28;20226;-65
2021/10/11 02:25:31;;;;;;;1999.90;999.90;;;12.00;99.90;;;;;;4954009;28;20175;-65
2021/10/11 02:27:57;;;;;;;1999.90;999.90;;;12.00;99.90;;;;;;4955052;28;20435;-65
2021/10/11 02:30:23;;;;;;;1999.90;999.90;;;12.00;99.90;;;;;;4957652;29;20438;-65
2021/10/11 02:32:48;;;;;;;1999.90;999.90;;;12.00;99.90;;;;;;4957952;29;20869;-65
2021/10/11 02:35:16;;;;;;;1999.90;999.90;;;12.00;99.90;;;;;;4957743;29;20230;-66
2021/10/11 02:37:43;;;;;;;1999.90;999.90;;;12.00;99.90;;;;;;4957892;28;20186;-65
2021/10/11 02:40:09;;;;;;;1999.90;999.90;;;12.00;99.90;;;;;;4957531;28;20418;-65
2021/10/11 02:42:35;;;;;;;1999.90;999.90;;;12.00;99.90;;;;;;4957518;28;20446;-65
2021/10/11 02:45:01;;;;;;;1999.90;999.90;;;12.00;99.90;;;;;;4957584;28;20469;-66
2021/10/11 02:47:27;;;;;;;1999.90;999.90;;;12.00;99.90;;;;;;4957612;28;20233;-66
2021/10/11 02:49:52;;;;;;;1999.90;999.90;;;12.00;99.90;;;;;;4957317;29;20410;-66
2021/10/11 02:52:18;;;;;;;1999.90;999.90;;;12.10;99.90;;;;;;4957268;29;20211;-66
2021/10/11 02:54:44;;;;;;;1999.90;999.90;;;12.10;99.90;;;;;;4957482;28;20175;-65
2021/10/11 02:57:09;;;;;;;1999.90;999.90;;;12.10;99.90;;;;;;4957419;29;20237;-65
2021/10/11 02:59:35;;;;;;;1999.90;999.90;;;12.10;99.90;;;;;;4957141;28;20182;-65
2021/10/11 03:02:01;;;;;;;1999.90;999.90;;;12.10;99.90;;;;;;4957203;29;20203;-66
2021/10/11 03:04:26;;;;;;;1999.90;999.90;;;12.20;99.90;;;;;;4957304;28;20206;-65
2021/10/11 03:06:52;;;;;;;1999.90;999.90;;;12.10;99.90;;;;;;4957279;29;20179;-66
2021/10/11 03:09:17;;;;;;;1999.90;999.90;;;12.10;99.90;;;;;;4957004;29;20167;-66
2021/10/11 03:11:43;;;;;;;1999.90;999.90;;;12.10;99.90;;;;;;4957082;29;20664;-66
2021/10/11 03:14:08;;;;;;;1999.90;999.90;;;12.20;99.90;;;;;;4957037;28;20262;-66
2021/10/11 03:16:34;;;;;;;1999.90;999.90;;;12.20;99.90;;;;;;4957053;29;20171;-66
2021/10/11 03:19:00;;;;;;;1999.90;999.90;;;12.10;99.90;;;;;;4957079;28;20183;-66
2021/10/11 03:21:26;;;;;;;1999.90;999.90;;;12.20;99.90;;;;;;4956652;28;20553;-65
2021/10/11 03:23:52;;;;;;;1999.90;999.90;;;12.20;99.90;;;;;;4956942;28;20578;-65
2021/10/11 03:26:19;;;;;;;1999.90;999.90;;;12.20;99.90;;;;;;4956916;29;20171;-65
2021/10/11 03:28:45;;;;;;;1999.90;999.90;;;12.20;99.90;;;;;;4956894;28;20200;-65
2021/10/11 03:31:10;;;;;;;1999.90;999.90;;;12.20;99.90;;;;;;4956473;28;20928;-65
2021/10/11 03:33:36;;;;;;;1999.90;999.90;;;12.20;99.90;;;;;;4956804;29;20411;-65
2021/10/11 03:36:02;;;;;;;1999.90;999.90;;;12.30;99.90;;;;;;4956751;29;20186;-65
2021/10/11 03:38:28;;;;;;;1999.90;999.90;;;12.30;99.90;;;;;;4956748;28;20719;-66
2021/10/11 03:40:54;;;;;;;1999.90;999.90;;;12.30;99.90;;;;;;4955186;28;20454;-66
2021/10/11 03:43:19;;;;;;;1999.90;999.90;;;12.40;99.90;;;;;;4956556;29;20304;-68
2021/10/11 03:45:45;;;;;;;1999.90;999.90;;;12.40;99.90;;;;;;4956544;29;20167;-66
2021/10/11 03:48:10;;;;;;;1999.90;999.90;;;12.40;99.90;;;;;;4956435;29;20171;-66
2021/10/11 03:50:36;;;;;;;1999.90;999.90;;;12.30;99.90;;;;;;4956083;28;20692;-66
2021/10/11 03:53:02;;;;;;;1999.90;999.90;;;12.20;99.90;;;;;;4957826;29;20183;-65
2021/10/11 03:55:27;;;;;;;1999.90;999.90;;;12.10;99.90;;;;;;4957107;28;20168;-64
2021/10/11 03:57:53;;;;;;;1999.90;999.90;;;12.10;99.90;;;;;;4956366;29;20254;-65
2021/10/11 04:00:18;;;;;;;1999.90;999.90;;;12.10;99.90;;;;;;4956035;29;20637;-65
2021/10/11 04:02:44;;;;;;;1999.90;999.90;;;12.10;99.90;;;;;;4956040;29;20256;-65
2021/10/11 04:05:10;;;;;;;1999.90;999.90;;;12.00;99.90;;;;;;4956288;29;20199;-65
2021/10/11 04:07:38;;;;;;;1999.90;999.90;;;12.00;99.90;;;;;;4956119;29;20177;-65
2021/10/11 04:10:06;;;;;;;1999.90;999.90;;;12.00;99.90;;;;;;4955870;28;20915;-66
2021/10/11 04:12:39;;;;;;;1999.90;999.90;;;12.00;99.90;;;;;;4955977;28;21124;-65
2021/10/11 04:15:06;;;;;;;1999.90;999.90;;;12.00;99.90;;;;;;4956048;28;20470;-64
2021/10/11 04:17:39;;;;;;;1999.90;999.90;;;12.00;99.90;;;;;;4955947;28;20418;-66
2021/10/11 04:20:08;;;;;;;1999.90;999.90;;;12.00;99.90;;;;;;4955763;28;20787;-66
2021/10/11 04:22:34;;;;;;;1999.90;999.90;;;12.00;99.90;;;;;;4955627;28;20999;-65
2021/10/11 04:25:00;;;;;;;1999.90;999.90;;;12.00;99.90;;;;;;4955772;28;20414;-65
2021/10/11 04:27:25;;;;;;;1999.90;999.90;;;12.00;99.90;;;;;;4956000;29;20780;-65
2021/10/11 04:29:51;;;;;;;1999.90;999.90;;;11.90;99.90;;;;;;4955504;29;20182;-65
2021/10/11 04:32:17;;;;;;;1999.90;999.90;;;12.00;99.90;;;;;;4955593;29;20289;-65
2021/10/11 04:34:42;;;;;;;1999.90;999.90;;;12.00;99.90;;;;;;4955752;29;20178;-65
2021/10/11 04:37:08;;;;;;;1999.90;999.90;;;12.00;99.90;;;;;;4955697;29;20233;-65
2021/10/11 04:39:33;;;;;;;1999.90;999.90;;;12.10;99.90;;;;;;4955276;29;20175;-65
2021/10/11 04:41:59;;;;;;;1999.90;999.90;;;12.00;99.90;;;;;;4955394;29;20263;-65
2021/10/11 04:44:25;;;;;;;1999.90;999.90;;;12.10;99.90;;;;;;4955432;29;20252;-66
2021/10/11 04:46:50;;;;;;;1999.90;999.90;;;12.10;99.90;;;;;;4955463;29;20598;-65
2021/10/11 04:49:16;;;;;;;1999.90;999.90;;;12.10;99.90;;;;;;4955394;29;20167;-66
2021/10/11 04:51:41;;;;;;;1999.90;999.90;;;12.20;99.90;;;;;;4954759;28;20213;-65
2021/10/11 04:54:07;;;;;;;1999.90;999.90;;;12.20;99.90;;;;;;4955226;29;20176;-66
2021/10/11 04:56:33;;;;;;;1999.90;999.90;;;12.20;99.90;;;;;;4955314;28;20538;-65
2021/10/11 04:58:58;;;;;;;1999.90;999.90;;;12.30;99.90;;;;;;4955255;29;20550;-66
2021/10/11 05:01:24;;;;;;;1999.90;999.90;;;12.30;99.90;;;;;;4954758;29;20207;-66
2021/10/11 05:03:49;;;;;;;1999.90;999.90;;;12.30;99.90;;;;;;4955128;29;20250;-65
2021/10/11 05:06:15;;;;;;;1999.90;999.90;;;12.30;99.90;;;;;;4955039;29;20258;-65
2021/10/11 05:08:41;;;;;;;1999.90;999.90;;;12.30;99.90;;;;;;4955000;29;20178;-65
2021/10/11 05:11:09;;;;;;;1999.90;999.90;;;12.40;99.90;;;;;;4954741;29;20209;-65
2021/10/11 05:13:35;;;;;;;1999.90;999.90;;;12.30;99.90;;;;;;4955107;28;20188;-65
2021/10/11 05:16:00;;;;;;;1999.90;999.90;;;12.30;99.90;;;;;;4954867;29;20414;-65
2021/10/11 05:18:26;;;;;;;1999.90;999.90;;;12.40;99.90;;;;;;4954921;29;20315;-66
2021/10/11 05:20:52;;;;;;;1999.90;999.90;;;12.40;99.90;;;;;;4954444;28;20207;-65
2021/10/11 05:23:18;;;;;;;1999.90;999.90;;;12.40;99.90;;;;;;4954731;29;20174;-65
2021/10/11 05:25:45;;;;;;;1999.90;999.90;;;12.50;99.90;;;;;;4954777;29;20648;-66
2021/10/11 05:28:11;;;;;;;1999.90;999.90;;;12.50;99.90;;;;;;4954735;28;20455;-65
2021/10/11 05:30:40;;;;;;;1999.90;999.90;;;12.40;99.90;;;;;;4954264;28;20848;-65
2021/10/11 05:33:09;;;;;;;1999.90;999.90;;;12.40;99.90;;;;;;4954796;28;20186;-65
2021/10/11 05:35:37;;;;;;;1999.90;999.90;;;12.40;99.90;;;;;;4954575;28;20814;-66
2021/10/11 05:38:04;;;;;;;1999.90;999.90;;;12.40;99.90;;;;;;4954483;28;20423;-65
2021/10/11 05:40:31;;;;;;;1999.90;999.90;;;12.40;99.90;;;;;;4954446;28;20805;-65
2021/10/11 05:42:57;;;;;;;1999.90;999.90;;;12.50;99.90;;;;;;4954489;28;20462;-66
2021/10/11 05:45:23;;;;;;;1999.90;999.90;;;12.50;99.90;;;;;;4954370;28;20784;-65
2021/10/11 05:47:49;;;;;;;1999.90;999.90;;;12.40;99.90;;;;;;4954511;28;20427;-66
2021/10/11 05:50:14;;;;;;;1999.90;999.90;;;12.40;99.90;;;;;;4954137;28;20522;-66
2021/10/11 05:52:40;;;;;;;1999.90;999.90;;;12.30;99.90;;;;;;4954082;28;20272;-66
2021/10/11 05:55:08;;;;;;;1999.90;999.90;;;12.30;99.90;;;;;;4954322;29;20202;-66
2021/10/11 05:57:34;;;;;;;1999.90;999.90;;;12.30;99.90;;;;;;4954392;28;20673;-66
2021/10/11 05:59:59;;;;;;;1999.90;999.90;;;12.20;99.90;;;;;;4953967;28;20452;-65
2021/10/11 06:02:25;;;;;;;1999.90;999.90;;;12.20;99.90;;;;;;4953509;28;20520;-65
2021/10/11 06:04:51;;;;;;;1999.90;999.90;;;12.10;99.90;;;;;;4954141;28;20174;-66
2021/10/11 06:07:16;;;;;;;1999.90;999.90;;;12.10;99.90;;;;;;4954154;29;20182;-65
2021/10/11 06:09:42;;;;;;;1999.90;999.90;;;12.10;99.90;;;;;;4953847;29;20197;-66
2021/10/11 06:12:08;;;;;;;1999.90;999.90;;;12.10;99.90;;;;;;4953960;29;20195;-65
2021/10/11 06:14:33;;;;;;;1999.90;999.90;;;12.10;99.90;;;;;;4953930;29;20633;-66
2021/10/11 06:16:59;;;;;;;1999.90;999.90;;;12.10;99.90;;;;;;4954020;29;20411;-66
2021/10/11 06:19:24;;;;;;;1999.90;999.90;;;12.00;99.90;;;;;;4952655;29;20171;-66
2021/10/11 06:21:50;;;;;;;1999.90;999.90;;;12.10;99.90;;;;;;4953521;28;20250;-66
2021/10/11 06:24:15;;;;;;;1999.90;999.90;;;12.10;99.90;;;;;;4953653;28;20174;-66
2021/10/11 06:26:41;;;;;;;1999.90;999.90;;;12.00;99.90;;;;;;4953727;29;20175;-65
2021/10/11 06:29:07;;;;;;;1999.90;999.90;;;12.10;99.90;;;;;;4953699;29;20171;-65
2021/10/11 06:31:33;;;;;;;1999.90;999.90;;;12.10;99.90;;;;;;4953305;28;20190;-66
2021/10/11 06:33:58;;;;;;;1999.90;999.90;;;12.10;99.90;;;;;;4953619;28;20213;-66
2021/10/11 06:36:26;;;;;;;1999.90;999.90;;;12.10;99.90;;;;;;4953494;29;20454;-66
2021/10/11 06:38:51;;;;;;;1999.90;999.90;;;12.10;99.90;;;;;;4953173;28;20620;-65
2021/10/11 06:41:17;;;;;;;1999.90;999.90;;;12.20;99.90;;;;;;4964492;28;20460;-66
2021/10/11 06:43:42;;;;;;;1999.90;999.90;;;12.10;99.90;;;;;;4970598;28;20175;-66
2021/10/11 06:46:08;;;;;;;1999.90;999.90;;;12.10;99.90;;;;;;4972910;28;20205;-66
2021/10/11 06:48:34;;;;;;;1999.90;999.90;;;12.10;99.90;;;;;;4972731;28;20176;-66
2021/10/11 06:50:59;;;;;;;1999.90;999.90;;;12.10;99.90;;;;;;4972435;28;20707;-65
2021/10/11 06:53:25;;;;;;;1999.90;999.90;;;12.20;99.90;;;;;;4972706;28;20571;-65
2021/10/11 06:55:50;;;;;;;1999.90;999.90;;;12.10;99.90;;;;;;4972909;28;20241;-66
2021/10/11 06:58:16;;;;;;;1999.90;999.90;;;12.20;99.90;;;;;;4972711;28;20174;-66
2021/10/11 07:00:41;;;;;;;1999.90;999.90;;;12.20;99.90;;;;;;4972465;28;20189;-65
2021/10/11 07:03:07;;;;;;;1999.90;999.90;;;12.20;99.90;;;;;;4972774;28;20645;-65
2021/10/11 07:05:34;;;;;;;1999.90;999.90;;;12.20;99.90;;;;;;4972764;28;20222;-66
2021/10/11 07:08:03;;;;;;;1999.90;999.90;;;12.20;99.90;;;;;;4972970;28;20175;-65
2021/10/11 07:10:29;;;;;;;1999.90;999.90;;;12.20;99.90;;;;;;4972505;28;20413;-66
2021/10/11 07:12:54;;;;;;;1999.90;999.90;;;12.20;99.90;;;;;;4972642;28;20525;-65
2021/10/11 07:15:20;;;;;;;1999.90;999.90;;;12.20;99.90;;;;;;4975914;28;20544;-66
2021/10/11 07:17:46;;;;;;;1999.90;999.90;;;12.20;99.90;;;;;;4976331;28;20183;-65
2021/10/11 07:20:12;;;;;;;1999.90;999.90;;;12.20;99.90;;;;;;4976367;28;20424;-65
2021/10/11 07:22:37;;;;;;;1999.90;999.90;;;12.20;99.90;;;;;;4976135;28;20576;-66
2021/10/11 07:25:04;;;;;;;1999.90;999.90;;;12.20;99.90;;;;;;4976268;28;20225;-67
2021/10/11 07:27:30;;;;;;;1999.90;999.90;;;12.20;99.90;;;;;;4976280;28;20174;-66
2021/10/11 07:29:55;;;;;;;1999.90;999.90;;;12.20;99.90;;;;;;4975903;28;20406;-66
2021/10/11 07:32:21;;;;;;;1999.90;999.90;;;12.20;99.90;;;;;;4976071;28;20213;-66
2021/10/11 07:34:46;;;;;;;1999.90;999.90;;;12.30;99.90;;;;;;4976089;28;20261;-66
2021/10/11 07:37:12;;;;;;;1999.90;999.90;;;12.40;99.90;;;;;;4972084;28;20217;-66
2021/10/11 07:39:37;;;;;;;1999.90;999.90;;;12.40;99.90;;;;;;4974466;28;20202;-66
2021/10/11 07:42:03;;;;;;;1999.90;999.90;;;12.40;99.90;;;;;;4974460;28;20210;-65
2021/10/11 07:44:30;;;;;;;1999.90;999.90;;;12.40;99.90;;;;;;4975159;28;20682;-66
2021/10/11 07:46:57;;;;;;;1999.90;999.90;;;12.50;99.90;;;;;;4975424;28;20189;-66
2021/10/11 07:49:23;;;;;;;1999.90;999.90;;;12.50;99.90;;;;;;4975397;28;20471;-66
2021/10/11 07:51:49;;;;;;;1999.90;999.90;;;12.60;99.90;;;;;;4974576;28;20969;-65
2021/10/11 07:54:16;;;;;;;1999.90;999.90;;;12.60;99.90;;;;;;4975507;28;20430;-65
2021/10/11 07:56:43;;;;;;;1999.90;999.90;;;12.70;99.90;;;;;;4975338;28;20190;-65
2021/10/11 07:59:09;;;;;;;1999.90;999.90;;;12.70;99.90;;;;;;4974644;28;20420;-66
2021/10/11 08:01:35;;;;;;;1999.90;999.90;;;12.80;99.90;;;;;;4974834;28;20955;-65
2021/10/11 08:04:03;;;;;;;1999.90;999.90;;;12.80;99.90;;;;;;4975266;28;20577;-66
2021/10/11 08:06:35;;;;;;;1999.90;999.90;;;12.80;99.90;;;;;;4974766;28;20414;-65
2021/10/11 08:09:01;;;;;;;1999.90;999.90;;;13.00;99.90;;;;;;4975930;28;20420;-66
2021/10/11 08:11:26;;;;;;;1999.90;999.90;;;13.10;99.90;;;;;;4976738;28;20429;-65
2021/10/11 08:13:52;;;;;;;1999.90;999.90;;;13.20;99.90;;;;;;4976047;28;20185;-66
2021/10/11 08:16:18;;;;;;;1999.90;999.90;;;13.30;99.90;;;;;;4976016;28;20197;-66
2021/10/11 08:18:43;;;;;;;1999.90;999.90;;;13.30;99.90;;;;;;4976001;28;20672;-66
2021/10/11 08:21:10;;;;;;;1999.90;999.90;;;13.40;99.90;;;;;;4975139;28;20565;-66
2021/10/11 08:23:36;;;;;;;1999.90;999.90;;;13.40;99.90;;;;;;4975866;28;20210;-66
2021/10/11 08:26:03;;;;;;;1999.90;999.90;;;13.40;99.90;;;;;;4976037;28;20410;-66
2021/10/11 08:28:29;;;;;;;1999.90;999.90;;;13.30;99.90;;;;;;4975951;28;20406;-65
2021/10/11 08:30:56;;;;;;;1999.90;999.90;;;13.30;99.90;;;;;;4976105;28;21467;-65
2021/10/11 08:33:21;;;;;;;1999.90;999.90;;;13.40;99.90;;;;;;4976514;28;20423;-66
2021/10/11 08:35:47;;;;;;;1999.90;999.90;;;13.40;99.90;;;;;;4975417;28;20722;-66
2021/10/11 08:38:13;;;;;;;1999.90;999.90;;;13.50;99.90;;;;;;4976047;28;20179;-66
2021/10/11 08:40:38;;;;;;;1999.90;999.90;;;13.50;99.90;;;;;;4975167;28;20168;-66
2021/10/11 08:43:04;;;;;;;1999.90;999.90;;;13.50;99.90;;;;;;4974781;28;20198;-65
2021/10/11 08:45:30;;;;;;;1999.90;999.90;;;13.70;99.90;;;;;;4975571;28;20166;-65
2021/10/11 08:47:55;;;;;;;1999.90;999.90;;;13.80;99.90;;;;;;4975607;28;20604;-65
2021/10/11 08:50:21;;;;;;;1999.90;999.90;;;13.90;99.90;;;;;;4975424;28;20512;-65
2021/10/11 08:52:49;;;;;;;1999.90;999.90;;;13.80;99.90;;;;;;4975420;28;20201;-66
2021/10/11 08:55:15;;;;;;;1999.90;999.90;;;13.90;99.90;;;;;;4975590;28;20599;-66
2021/10/11 08:57:40;;;;;;;1999.90;999.90;;;14.00;99.90;;;;;;4974615;28;20575;-66
2021/10/11 09:00:10;;;;;;;1999.90;999.90;;;14.10;99.90;;;;;;4975386;28;20407;-66
2021/10/11 09:02:35;;;;;;;1999.90;999.90;;;14.20;99.90;;;;;;4975662;28;20264;-65
2021/10/11 09:05:01;;;;;;;1999.90;999.90;;;14.30;99.90;;;;;;4975442;28;20414;-64
2021/10/11 09:07:29;;;;;;;1999.90;999.90;;;14.30;99.90;;;;;;4975158;28;20171;-66
2021/10/11 09:09:57;;;;;;;1999.90;999.90;;;14.30;99.90;;;;;;4975859;28;20173;-66
2021/10/11 09:12:30;;;;;;;1999.90;999.90;;;14.30;99.90;;;;;;4974974;28;20430;-66
2021/10/11 09:15:14;;;;;;;1999.90;999.90;;;14.40;99.90;;;;;;4975857;28;20402;-66
2021/10/11 09:17:44;;;;;;;1999.90;999.90;;;14.40;99.90;;;;;;4974759;28;20413;-66
2021/10/11 09:20:18;;;;;;;1999.90;999.90;;;14.50;99.90;;;;;;4973381;28;20412;-66
2021/10/11 09:22:45;;;;;;;1999.90;999.90;;;14.30;99.90;;;;;;4973793;28;20466;-66
2021/10/11 09:25:13;;;;;;;1999.90;999.90;;;14.30;99.90;;;;;;4973799;28;20437;-68
2021/10/11 09:27:46;;;;;;;1999.90;999.90;;;14.30;99.90;;;;;;4972646;28;20765;-67
2021/10/11 09:30:12;;;;;;;1999.90;999.90;;;14.30;99.90;;;;;;4973354;28;20786;-67
2021/10/11 09:32:38;;;;;;;1999.90;999.90;;;14.30;99.90;;;;;;4973777;28;20472;-66
2021/10/11 09:35:13;;;;;;;1999.90;999.90;;;14.30;99.90;;;;;;4973297;28;20450;-66
2021/10/11 09:37:39;;;;;;;1999.90;999.90;;;14.40;99.90;;;;;;4972678;28;20655;-66
2021/10/11 09:40:07;;;;;;;1999.90;999.90;;;14.50;99.90;;;;;;4973374;28;20829;-66
2021/10/11 09:42:34;;;;;;;1999.90;999.90;;;14.60;99.90;;;;;;4973305;28;20472;-66
2021/10/11 09:45:00;;;;;;;1999.90;999.90;;;14.50;99.90;;;;;;4973465;28;20495;-67
2021/10/11 09:47:36;;;;;;;1999.90;999.90;;;14.60;99.90;;;;;;4973510;28;20409;-67
2021/10/11 09:50:08;;;;;;;1999.90;999.90;;;14.70;99.90;;;;;;4972872;28;20419;-66
2021/10/11 09:52:34;;;;;;;1999.90;999.90;;;14.70;99.90;;;;;;5030946;23;20495;-67
2021/10/11 09:55:00;;;;;;;1999.90;999.90;;;14.80;99.90;;;;;;5012424;28;20409;-67
2021/10/11 09:57:25;;;;;;;1999.90;999.90;;;14.80;99.90;;;;;;5012061;28;20397;-67
2021/10/11 09:59:53;;;;;;;1999.90;999.90;;;14.70;99.90;;;;;;5012049;28;20540;-67
2021/10/11 10:02:25;;;;;;;1999.90;999.90;;;14.80;99.90;;;;;;5004183;28;20218;-67
2021/10/11 10:04:55;;;;;;;1999.90;999.90;;;14.80;99.90;;;;;;4992633;28;20405;-67
2021/10/11 10:07:22;;;;;;;1999.90;999.90;;;14.70;99.90;;;;;;4992570;28;20434;-67
2021/10/11 10:09:51;;;;;;;1999.90;999.90;;;14.60;99.90;;;;;;4992495;28;20794;-67
2021/10/11 10:12:17;;;;;;;1999.90;999.90;;;14.70;99.90;;;;;;4992380;28;20790;-67
2021/10/11 10:14:43;;;;;;;1999.90;999.90;;;14.70;99.90;;;;;;4992060;28;20444;-67
2021/10/11 10:17:08;;;;;;;1999.90;999.90;;;14.80;99.90;;;;;;4992323;28;20179;-67
2021/10/11 10:19:36;;;;;;;1999.90;999.90;;;14.90;99.90;;;;;;4991914;28;20180;-67
2021/10/11 10:22:11;;;;;;;1999.90;999.90;;;15.00;99.90;;;;;;4992033;28;20228;-67
2021/10/11 10:24:37;;;;;;;1999.90;999.90;;;15.10;99.90;;;;;;4992134;28;20493;-67
2021/10/11 10:27:10;;;;;;;1999.90;999.90;;;15.20;99.90;;;;;;4992058;28;20444;-66
2021/10/11 10:29:47;;;;;;;1999.90;999.90;;;15.40;99.90;;;;;;4992186;28;20404;-66
2021/10/11 10:32:15;;;;;;;1999.90;999.90;;;15.60;99.90;;;;;;4992149;28;20786;-66
2021/10/11 10:34:44;;;;;;;1999.90;999.90;;;15.60;99.90;;;;;;4991867;28;20410;-66
2021/10/11 10:37:11;;;;;;;1999.90;999.90;;;15.60;99.90;;;;;;4992116;28;20467;-67
2021/10/11 10:39:45;;;;;;;1999.90;999.90;;;15.60;99.90;;;;;;4991919;28;20910;-66
2021/10/11 10:42:24;;;;;;;1999.90;999.90;;;15.60;99.90;;;;;;4991508;28;20459;-67
2021/10/11 10:44:50;;;;;;;1999.90;999.90;;;15.50;99.90;;;;;;4992530;28;20439;-66
2021/10/11 10:47:15;;;;;;;1999.90;999.90;;;15.50;99.90;;;;;;4991944;28;20838;-66
2021/10/11 10:49:50;;;;;;;1999.90;999.90;;;15.40;99.90;;;;;;4993769;28;20169;-66
2021/10/11 10:52:18;;;;;;;1999.90;999.90;;;15.40;99.90;;;;;;4995494;28;20269;-66
2021/10/11 10:54:51;;;;;;;1999.90;999.90;;;15.30;99.90;;;;;;4996217;28;20754;-66
2021/10/11 10:57:26;;;;;;;1999.90;999.90;;;15.40;99.90;;;;;;4995433;28;20398;-66
2021/10/11 10:59:58;;;;;;;1999.90;999.90;;;15.40;99.90;;;;;;4996179;28;20760;-66
2021/10/11 11:02:24;;;;;;;1999.90;999.90;;;15.40;99.90;;;;;;4995695;28;20461;-66
2021/10/11 11:04:58;;;;;;;1999.90;999.90;;;15.40;99.90;;;;;;4995192;28;20407;-66
2021/10/11 11:07:29;;;;;;;1999.90;999.90;;;15.40;99.90;;;;;;4995974;28;20416;-66
2021/10/11 11:09:55;;;;;;;1999.90;999.90;;;15.30;99.90;;;;;;4995868;28;20767;-66
2021/10/11 11:12:53;;;;;;;1999.90;999.90;;;15.30;99.90;;;;;;4994988;28;20633;-66
2021/10/11 11:15:27;;;;;;;1999.90;999.90;;;15.30;99.90;;;;;;4983663;28;20441;-66
2021/10/11 11:17:54;;;;;;;1999.90;999.90;;;15.30;99.90;;;;;;4995660;28;20443;-66
2021/10/11 11:20:24;;;;;;;1999.90;999.90;;;15.40;99.90;;;;;;4994964;28;20482;-66
2021/10/11 11:22:52;;;;;;;1999.90;999.90;;;15.30;99.90;;;;;;4994162;28;20989;-66
2021/10/11 11:25:25;;;;;;;1999.90;999.90;;;15.40;99.90;;;;;;4995487;28;20821;-66
2021/10/11 11:27:57;;;;;;;1999.90;999.90;;;15.50;99.90;;;;;;4995100;28;20783;-66
2021/10/11 11:30:23;;;;;;;1999.90;999.90;;;15.60;99.90;;;;;;4995251;28;20462;-66
2021/10/11 11:33:04;;;;;;;1999.90;999.90;;;15.60;99.90;;;;;;4995447;28;21025;-66
2021/10/11 11:35:37;;;;;;;1999.90;999.90;;;15.70;99.90;;;;;;4995278;28;20415;-66
2021/10/11 11:38:06;;;;;;;1999.90;999.90;;;15.80;99.90;;;;;;4995070;28;20408;-66
2021/10/11 11:40:43;;;;;;;1999.90;999.90;;;15.90;99.90;;;;;;4994511;28;20956;-66
2021/10/11 11:43:10;;;;;;;1999.90;999.90;;;16.00;99.90;;;;;;4995173;28;21129;-66
2021/10/11 11:45:46;;;;;;;1999.90;999.90;;;16.10;99.90;;;;;;4995057;28;20937;-66
2021/10/11 11:48:21;;;;;;;1999.90;999.90;;;16.20;99.90;;;;;;4994602;28;20403;-67
2021/10/11 11:50:50;;;;;;;1999.90;999.90;;;16.30;99.90;;;;;;4994848;28;21128;-66
2021/10/11 11:53:17;;;;;;;1999.90;999.90;;;16.30;99.90;;;;;;4994629;28;20474;-66
2021/10/11 11:55:49;;;;;;;1999.90;999.90;;;16.20;99.90;;;;;;4994536;28;20419;-66
2021/10/11 11:58:28;;;;;;;1999.90;999.90;;;16.10;99.90;;;;;;4994676;28;20519;-66